createdAt,value
2022-09-04T00:01:19.838Z,17.00
2022-09-04T00:03:54.554Z,17.00
2022-09-04T00:06:33.706Z,17.00
2022-09-04T00:09:11.977Z,17.00
2022-09-04T00:11:47.450Z,17.00
2022-09-04T00:14:21.038Z,17.00
2022-09-04T00:16:55.670Z,16.80
2022-09-04T00:19:31.969Z,16.80
2022-09-04T00:22:03.009Z,16.90
2022-09-04T00:24:35.850Z,16.80
2022-09-04T00:27:10.535Z,16.70
2022-09-04T00:29:48.397Z,16.70
2022-09-04T00:32:25.310Z,16.80
2022-09-04T00:35:03.522Z,16.90
2022-09-04T00:37:40.026Z,16.80
2022-09-04T00:40:14.973Z,16.90
2022-09-04T00:42:55.937Z,16.90
2022-09-04T00:45:41.897Z,17.00
2022-09-04T00:48:22.677Z,17.00
2022-09-04T00:51:06.691Z,17.00
2022-09-04T00:53:56.598Z,17.00
2022-09-04T00:56:49.527Z,17.00
2022-09-04T00:59:30.637Z,17.00
2022-09-04T01:02:08.188Z,17.00
2022-09-04T01:04:43.070Z,16.90
2022-09-04T01:07:24.643Z,16.80
2022-09-04T01:10:06.466Z,16.80
2022-09-04T01:12:41.475Z,16.70
2022-09-04T01:15:16.650Z,16.70
2022-09-04T01:17:54.697Z,16.70
2022-09-04T01:20:34.436Z,16.70
2022-09-04T01:23:17.003Z,16.70
2022-09-04T01:25:59.813Z,16.70
2022-09-04T01:28:32.998Z,16.60
2022-09-04T01:31:06.969Z,16.60
2022-09-04T01:33:41.355Z,16.60
2022-09-04T01:36:18.422Z,16.60
2022-09-04T01:38:50.862Z,16.60
2022-09-04T01:41:25.083Z,16.60
2022-09-04T01:43:53.334Z,16.60
2022-09-04T01:46:34.706Z,16.60
2022-09-04T01:49:08.337Z,16.60
2022-09-04T01:51:43.418Z,16.60
2022-09-04T01:54:27.142Z,16.60
2022-09-04T01:57:09.362Z,16.60
2022-09-04T01:59:53.443Z,16.60
2022-09-04T02:02:26.492Z,16.40
2022-09-04T02:05:08.188Z,16.50
2022-09-04T02:07:44.356Z,16.50
2022-09-04T02:10:23.481Z,16.40
2022-09-04T02:13:08.434Z,16.30
2022-09-04T02:15:44.563Z,16.30
2022-09-04T02:18:20.047Z,16.30
2022-09-04T02:20:56.327Z,16.20
2022-09-04T02:23:35.212Z,16.10
2022-09-04T02:26:13.126Z,15.90
2022-09-04T02:28:52.981Z,15.90
2022-09-04T02:31:31.194Z,15.90
2022-09-04T02:34:08.164Z,15.90
2022-09-04T02:36:43.195Z,15.90
2022-09-04T02:39:20.088Z,15.90
2022-09-04T02:42:00.517Z,15.90
2022-09-04T02:44:44.899Z,15.90
2022-09-04T02:47:23.575Z,15.90
2022-09-04T02:50:00.007Z,15.90
2022-09-04T02:52:43.193Z,16.00
2022-09-04T02:55:19.187Z,16.00
2022-09-04T02:58:02.420Z,15.90
2022-09-04T03:00:41.701Z,16.00
2022-09-04T03:03:14.147Z,15.80
2022-09-04T03:05:47.715Z,15.90
2022-09-04T03:08:19.303Z,16.00
2022-09-04T03:10:54.071Z,16.00
2022-09-04T03:13:28.956Z,16.00
2022-09-04T03:16:04.768Z,16.00
2022-09-04T03:18:51.559Z,16.10
2022-09-04T03:21:24.675Z,16.10
2022-09-04T03:23:57.926Z,16.10
2022-09-04T03:26:29.179Z,16.00
2022-09-04T03:29:06.227Z,16.00
2022-09-04T03:31:41.551Z,16.00
2022-09-04T03:34:24.504Z,16.00
2022-09-04T03:37:06.744Z,16.00
2022-09-04T03:39:44.568Z,15.90
2022-09-04T03:42:20.859Z,16.00
2022-09-04T03:45:03.516Z,15.90
2022-09-04T03:47:43.573Z,16.00
2022-09-04T03:50:18.516Z,15.90
2022-09-04T03:52:57.311Z,15.90
2022-09-04T03:55:44.848Z,15.90
2022-09-04T03:58:23.748Z,15.80
2022-09-04T04:01:05.147Z,15.70
2022-09-04T04:03:51.435Z,15.60
2022-09-04T04:06:26.447Z,15.50
2022-09-04T04:09:10.267Z,15.50
2022-09-04T04:12:02.643Z,15.40
2022-09-04T04:14:46.003Z,15.40
2022-09-04T04:17:32.706Z,15.40
2022-09-04T04:20:16.747Z,15.40
2022-09-04T04:22:58.235Z,15.40
2022-09-04T04:25:47.350Z,15.40
2022-09-04T04:28:33.151Z,15.40
2022-09-04T04:31:10.573Z,15.40
2022-09-04T04:33:48.211Z,15.30
2022-09-04T04:36:29.551Z,15.30
2022-09-04T04:39:14.292Z,15.30
2022-09-04T04:42:08.943Z,15.10
2022-09-04T04:45:04.939Z,15.10
2022-09-04T04:47:55.800Z,15.20
2022-09-04T04:50:33.588Z,15.20
2022-09-04T04:53:14.335Z,15.20
2022-09-04T04:55:50.167Z,15.20
2022-09-04T04:58:47.695Z,15.10
2022-09-04T05:01:28.852Z,15.10
2022-09-04T05:04:07.668Z,15.20
2022-09-04T05:06:40.709Z,15.20
2022-09-04T05:09:17.346Z,15.20
2022-09-04T05:11:53.746Z,15.20
2022-09-04T05:14:34.064Z,15.20
2022-09-04T05:17:15.124Z,15.10
2022-09-04T05:19:50.423Z,15.10
2022-09-04T05:22:26.120Z,15.20
2022-09-04T05:25:03.219Z,15.30
2022-09-04T05:27:42.179Z,15.30
2022-09-04T05:30:15.475Z,15.30
2022-09-04T05:32:59.579Z,15.40
2022-09-04T05:35:35.562Z,15.50
2022-09-04T05:38:10.832Z,15.50
2022-09-04T05:41:00.890Z,15.60
2022-09-04T05:43:42.608Z,15.60
2022-09-04T05:46:18.737Z,15.60
2022-09-04T05:48:57.942Z,15.70
2022-09-04T05:51:50.771Z,15.80
2022-09-04T05:54:37.938Z,15.90
2022-09-04T05:57:18.626Z,16.10
2022-09-04T06:00:02.958Z,16.30
2022-09-04T06:03:32.501Z,16.40
2022-09-04T06:06:20.200Z,16.50
2022-09-04T06:08:59.855Z,16.70
2022-09-04T06:11:40.697Z,17.00
2022-09-04T06:14:24.794Z,17.00
2022-09-04T06:17:07.084Z,17.90
2022-09-04T06:19:48.915Z,18.40
2022-09-04T06:22:31.571Z,18.80
2022-09-04T06:25:14.412Z,19.20
2022-09-04T06:27:58.962Z,20.20
2022-09-04T06:30:31.188Z,21.10
2022-09-04T06:33:18.586Z,21.90
2022-09-04T06:36:11.846Z,22.80
2022-09-04T06:38:50.794Z,23.60
2022-09-04T06:41:35.458Z,24.70
2022-09-04T06:44:12.825Z,25.40
2022-09-04T06:46:48.551Z,26.30
2022-09-04T06:49:26.147Z,26.50
2022-09-04T06:52:12.608Z,26.40
2022-09-04T06:54:52.280Z,27.00
2022-09-04T06:57:38.454Z,27.30
2022-09-04T07:00:08.730Z,26.50
2022-09-04T07:02:51.506Z,27.40
2022-09-04T07:05:28.610Z,27.60
2022-09-04T07:08:09.282Z,28.20
2022-09-04T07:10:43.484Z,28.90
2022-09-04T07:13:28.202Z,29.60
2022-09-04T07:16:09.875Z,29.00
2022-09-04T07:19:00.944Z,29.40
2022-09-04T07:21:35.435Z,29.50
2022-09-04T07:24:12.508Z,30.40
2022-09-04T07:26:48.946Z,31.20
2022-09-04T07:29:34.089Z,31.70
2022-09-04T07:32:06.907Z,32.60
2022-09-04T07:34:44.358Z,32.70
2022-09-04T07:37:27.634Z,32.20
2022-09-04T07:40:08.325Z,32.90
2022-09-04T07:42:43.071Z,33.30
2022-09-04T07:45:22.388Z,32.60
2022-09-04T07:47:58.327Z,33.50
2022-09-04T07:50:30.774Z,34.20
2022-09-04T07:53:17.225Z,35.00
2022-09-04T07:55:49.178Z,35.80
2022-09-04T07:58:50.271Z,36.50
2022-09-04T08:01:40.201Z,36.80
2022-09-04T08:04:26.414Z,36.40
2022-09-04T08:06:59.902Z,36.70
2022-09-04T08:09:41.468Z,35.70
2022-09-04T08:12:39.086Z,36.80
2022-09-04T08:15:20.332Z,37.70
2022-09-04T08:17:59.011Z,38.30
2022-09-04T08:20:42.036Z,38.80
2022-09-04T08:23:25.577Z,39.20
2022-09-04T08:26:06.631Z,39.60
2022-09-04T08:28:51.334Z,40.00
2022-09-04T08:31:27.058Z,40.40
2022-09-04T08:34:08.743Z,40.80
2022-09-04T08:36:46.042Z,41.00
2022-09-04T08:39:21.725Z,40.70
2022-09-04T08:42:13.220Z,40.00
2022-09-04T08:45:23.014Z,40.50
2022-09-04T08:48:19.025Z,40.80
2022-09-04T08:51:08.566Z,41.30
2022-09-04T08:53:57.682Z,41.50
2022-09-04T08:56:30.886Z,41.90
2022-09-04T08:59:29.120Z,42.10
2022-09-04T09:02:27.487Z,42.10
2022-09-04T09:05:16.742Z,42.20
2022-09-04T09:08:08.922Z,42.30
2022-09-04T09:10:43.789Z,42.40
2022-09-04T09:13:37.453Z,42.60
2022-09-04T09:16:20.040Z,42.40
2022-09-04T09:19:06.573Z,42.70
2022-09-04T09:21:44.830Z,42.60
2022-09-04T09:24:35.617Z,42.90
2022-09-04T09:27:31.117Z,42.90
2022-09-04T09:30:08.245Z,43.20
2022-09-04T09:33:06.389Z,42.60
2022-09-04T09:36:06.308Z,43.00
2022-09-04T09:38:55.742Z,43.50
2022-09-04T09:41:53.234Z,43.20
2022-09-04T09:44:48.502Z,43.10
2022-09-04T09:47:37.182Z,42.70
2022-09-04T09:50:22.279Z,42.20
2022-09-04T09:53:28.842Z,42.10
2022-09-04T09:56:25.925Z,41.60
2022-09-04T09:59:11.350Z,41.90
2022-09-04T10:02:05.202Z,42.10
2022-09-04T10:04:55.694Z,42.00
2022-09-04T10:07:54.854Z,42.40
2022-09-04T10:10:46.645Z,42.20
2022-09-04T10:13:44.493Z,42.30
2022-09-04T10:16:42.632Z,42.30
2022-09-04T10:19:40.358Z,42.40
2022-09-04T10:22:28.967Z,43.10
2022-09-04T10:25:32.203Z,43.30
2022-09-04T10:28:16.551Z,42.90
2022-09-04T10:31:12.271Z,42.90
2022-09-04T10:33:50.734Z,43.10
2022-09-04T10:36:29.974Z,42.80
2022-09-04T10:39:29.608Z,42.90
2022-09-04T10:42:12.120Z,41.80
2022-09-04T10:44:46.025Z,40.80
2022-09-04T10:47:28.102Z,41.20
2022-09-04T10:50:13.667Z,41.50
2022-09-04T10:53:10.335Z,41.20
2022-09-04T10:55:58.266Z,40.10
2022-09-04T10:58:33.244Z,38.80
2022-09-04T11:01:23.019Z,38.20
2022-09-04T11:04:20.597Z,38.10
2022-09-04T11:07:10.365Z,38.40
2022-09-04T11:09:50.650Z,39.20
2022-09-04T11:12:48.218Z,39.40
2022-09-04T11:15:32.873Z,39.20
2022-09-04T11:18:22.654Z,40.00
2022-09-04T11:21:13.054Z,39.30
2022-09-04T11:24:10.589Z,38.90
2022-09-04T11:27:08.051Z,39.10
2022-09-04T11:29:55.061Z,40.10
2022-09-04T11:32:44.860Z,41.00
2022-09-04T11:35:42.378Z,41.50
2022-09-04T11:38:18.229Z,41.80
2022-09-04T11:41:16.397Z,42.00
2022-09-04T11:44:10.784Z,41.90
2022-09-04T11:47:01.590Z,42.60
2022-09-04T11:49:44.629Z,42.60
2022-09-04T11:52:22.550Z,42.70
2022-09-04T11:55:19.294Z,42.20
2022-09-04T11:57:59.377Z,41.10
2022-09-04T12:00:33.004Z,38.30
2022-09-04T12:03:18.194Z,37.40
2022-09-04T12:06:04.301Z,37.00
2022-09-04T12:08:54.898Z,35.70
2022-09-04T12:11:42.469Z,34.90
2022-09-04T12:14:23.012Z,34.90
2022-09-04T12:17:15.297Z,34.40
2022-09-04T12:20:08.399Z,33.70
2022-09-04T12:23:01.439Z,32.70
2022-09-04T12:25:53.809Z,32.00
2022-09-04T12:28:51.293Z,31.60
2022-09-04T12:31:42.094Z,31.10
2022-09-04T12:34:33.030Z,30.60
2022-09-04T12:37:27.413Z,30.40
2022-09-04T12:40:24.905Z,29.90
2022-09-04T12:43:02.582Z,29.30
2022-09-04T12:45:40.328Z,29.20
2022-09-04T12:48:16.304Z,29.30
2022-09-04T12:50:52.746Z,29.20
2022-09-04T12:53:48.151Z,29.20
2022-09-04T12:56:29.559Z,29.30
2022-09-04T12:59:16.221Z,29.30
2022-09-04T13:01:57.507Z,29.20
2022-09-04T13:04:33.926Z,29.20
2022-09-04T13:07:15.942Z,29.30
2022-09-04T13:09:55.775Z,29.30
2022-09-04T13:12:31.657Z,29.30
2022-09-04T13:15:13.264Z,29.20
2022-09-04T13:17:51.042Z,29.20
2022-09-04T13:20:26.715Z,29.20
2022-09-04T13:23:08.109Z,29.10
2022-09-04T13:25:52.330Z,29.00
2022-09-04T13:28:37.763Z,28.90
2022-09-04T13:31:33.156Z,28.80
2022-09-04T13:34:13.190Z,28.70
2022-09-04T13:36:49.480Z,28.70
2022-09-04T13:39:33.278Z,28.60
2022-09-04T13:42:15.061Z,28.60
2022-09-04T13:44:57.631Z,28.50
2022-09-04T13:47:32.529Z,28.50
2022-09-04T13:50:08.368Z,28.50
2022-09-04T13:52:40.063Z,28.60
2022-09-04T13:55:13.938Z,28.50
2022-09-04T13:57:47.766Z,28.60
2022-09-04T14:00:16.908Z,28.70
2022-09-04T14:02:47.455Z,28.70
2022-09-04T14:05:23.153Z,28.70
2022-09-04T14:07:59.743Z,28.70
2022-09-04T14:10:39.231Z,28.80
2022-09-04T14:13:23.001Z,28.80
2022-09-04T14:16:03.717Z,28.80
2022-09-04T14:18:45.531Z,28.60
2022-09-04T14:21:23.894Z,28.60
2022-09-04T14:24:03.168Z,28.60
2022-09-04T14:26:41.495Z,28.60
2022-09-04T14:29:21.018Z,28.50
2022-09-04T14:32:02.616Z,28.50
2022-09-04T14:34:43.779Z,28.50
2022-09-04T14:37:26.083Z,28.40
2022-09-04T14:40:03.395Z,28.40
2022-09-04T14:42:42.893Z,28.40
2022-09-04T14:45:23.187Z,28.40
2022-09-04T14:47:55.515Z,28.30
2022-09-04T14:50:29.302Z,28.30
2022-09-04T14:53:00.702Z,28.30
2022-09-04T14:55:31.222Z,28.30
2022-09-04T14:58:06.080Z,28.30
2022-09-04T15:00:51.295Z,28.30
2022-09-04T15:03:24.414Z,28.30
2022-09-04T15:05:56.832Z,28.20
2022-09-04T15:08:29.434Z,28.20
2022-09-04T15:11:00.629Z,28.20
2022-09-04T15:13:47.343Z,28.20
2022-09-04T15:16:21.030Z,28.20
2022-09-04T15:18:56.772Z,28.10
2022-09-04T15:21:34.606Z,28.00
2022-09-04T15:24:10.656Z,28.00
2022-09-04T15:26:46.600Z,28.00
2022-09-04T15:29:21.641Z,28.10
2022-09-04T15:31:59.477Z,28.00
2022-09-04T15:34:29.276Z,28.00
2022-09-04T15:37:10.394Z,27.90
2022-09-04T15:39:48.338Z,27.80
2022-09-04T15:42:35.254Z,27.80
2022-09-04T15:45:10.603Z,27.80
2022-09-04T15:48:00.724Z,27.80
2022-09-04T15:50:34.314Z,27.80
2022-09-04T15:53:16.512Z,27.70
2022-09-04T15:55:48.276Z,27.70
2022-09-04T15:58:19.513Z,27.70
2022-09-04T16:01:16.790Z,27.60
2022-09-04T16:03:55.670Z,27.50
2022-09-04T16:06:31.560Z,27.50
2022-09-04T16:09:06.480Z,27.40
2022-09-04T16:11:38.938Z,27.40
2022-09-04T16:14:11.465Z,27.40
2022-09-04T16:16:44.251Z,27.50
2022-09-04T16:19:23.662Z,27.50
2022-09-04T16:21:59.595Z,27.40
2022-09-04T16:24:34.827Z,27.40
2022-09-04T16:27:08.034Z,27.50
2022-09-04T16:29:38.998Z,27.40
2022-09-04T16:32:10.685Z,27.40
2022-09-04T16:34:45.753Z,27.30
2022-09-04T16:37:18.973Z,27.30
2022-09-04T16:40:00.077Z,27.30
2022-09-04T16:42:38.181Z,27.20
2022-09-04T16:45:13.467Z,27.20
2022-09-04T16:47:46.986Z,27.10
2022-09-04T16:50:24.794Z,27.10
2022-09-04T16:53:13.390Z,27.10
2022-09-04T16:55:54.619Z,27.00
2022-09-04T16:58:39.810Z,27.00
2022-09-04T17:01:15.479Z,26.90
2022-09-04T17:04:13.594Z,26.90
2022-09-04T17:06:54.070Z,26.80
2022-09-04T17:09:27.655Z,26.80
2022-09-04T17:12:01.328Z,26.60
2022-09-04T17:14:36.047Z,26.60
2022-09-04T17:17:30.708Z,26.50
2022-09-04T17:20:05.399Z,26.40
2022-09-04T17:28:55.171Z,26.30
2022-09-04T17:29:08.059Z,26.20
2022-09-04T17:29:19.623Z,26.00
2022-09-04T17:31:25.763Z,25.80
2022-09-04T17:40:06.226Z,25.60
2022-09-04T17:40:55.263Z,25.40
2022-09-04T17:41:28.922Z,25.20
2022-09-04T17:43:22.198Z,24.90
2022-09-04T17:45:46.002Z,24.70
2022-09-04T17:48:24.032Z,24.50
2022-09-04T17:50:55.438Z,24.40
2022-09-04T17:53:33.228Z,24.30
2022-09-04T17:56:07.989Z,24.10
2022-09-04T17:58:41.310Z,24.00
2022-09-04T18:01:17.899Z,24.00
2022-09-04T18:04:19.967Z,23.90
2022-09-04T18:06:50.833Z,23.80
2022-09-04T18:09:26.971Z,23.70
2022-09-04T18:12:07.201Z,23.50
2022-09-04T18:14:42.213Z,23.30
2022-09-04T18:17:17.074Z,23.20
2022-09-04T18:19:46.784Z,23.00
2022-09-04T18:22:33.370Z,22.80
2022-09-04T18:25:16.202Z,22.80
2022-09-04T18:28:11.405Z,22.80
2022-09-04T18:37:06.584Z,22.70
2022-09-04T18:37:20.593Z,22.60
2022-09-04T18:37:22.285Z,22.50
2022-09-04T18:39:41.374Z,22.30
2022-09-04T18:50:25.619Z,22.00
2022-09-04T18:50:37.417Z,21.80
2022-09-04T18:50:41.034Z,21.90
2022-09-04T18:51:18.712Z,21.60
2022-09-04T18:53:51.290Z,21.50
2022-09-04T18:56:23.307Z,21.40
2022-09-04T18:58:59.302Z,21.30
2022-09-04T19:01:33.349Z,21.00
2022-09-04T19:04:31.909Z,21.00
2022-09-04T19:07:06.845Z,20.90
2022-09-04T19:09:59.001Z,20.80
2022-09-04T19:12:46.599Z,20.70
2022-09-04T19:15:37.030Z,20.70
2022-09-04T19:18:15.469Z,20.60
2022-09-04T19:20:50.046Z,20.60
2022-09-04T19:23:27.095Z,20.50
2022-09-04T19:26:00.116Z,20.60
2022-09-04T19:28:40.563Z,20.50
2022-09-04T19:31:27.716Z,20.50
2022-09-04T19:34:02.727Z,20.50
2022-09-04T19:36:37.640Z,20.60
2022-09-04T19:45:54.749Z,20.60
2022-09-04T19:45:59.531Z,20.50
2022-09-04T19:46:00.908Z,20.50
2022-09-04T19:48:11.410Z,20.50
2022-09-04T19:53:23.291Z,20.40
2022-09-04T19:53:44.941Z,20.20
2022-09-04T19:56:26.859Z,20.20
2022-09-04T19:58:58.678Z,20.10
2022-09-04T20:01:32.203Z,20.10
2022-09-04T20:04:03.465Z,20.10
2022-09-04T20:06:36.324Z,20.00
2022-09-04T20:09:15.269Z,20.00
2022-09-04T20:11:48.603Z,20.00
2022-09-04T20:14:25.074Z,20.00
2022-09-04T20:17:04.172Z,20.00
2022-09-04T20:19:40.479Z,19.90
2022-09-04T20:22:16.567Z,19.90
2022-09-04T20:25:01.573Z,19.80
2022-09-04T20:27:37.591Z,19.70
2022-09-04T20:30:12.014Z,19.70
2022-09-04T20:32:56.359Z,19.80
2022-09-04T20:35:33.767Z,19.70
2022-09-04T20:38:23.453Z,19.70
2022-09-04T20:40:56.187Z,19.60
2022-09-04T20:43:32.623Z,19.60
2022-09-04T20:49:41.705Z,19.50
2022-09-04T20:52:50.475Z,19.50
2022-09-04T20:52:55.062Z,19.30
2022-09-04T20:55:05.819Z,19.20
2022-09-04T21:03:06.267Z,19.20
2022-09-04T21:03:24.717Z,19.10
2022-09-04T21:03:46.706Z,19.10
2022-09-04T21:06:28.767Z,19.10
2022-09-04T21:09:07.278Z,19.00
2022-09-04T21:11:41.549Z,19.00
2022-09-04T21:14:17.718Z,19.00
2022-09-04T21:17:02.719Z,18.90
2022-09-04T21:20:18.119Z,18.80
2022-09-04T21:23:03.979Z,18.60
2022-09-04T21:25:41.832Z,18.70
2022-09-04T21:28:29.822Z,18.70
2022-09-04T21:31:09.340Z,18.60
2022-09-04T21:33:44.333Z,18.60
2022-09-04T21:36:26.136Z,18.50
2022-09-04T21:39:19.710Z,18.50
2022-09-04T21:42:04.356Z,18.50
2022-09-04T21:45:04.051Z,18.40
2022-09-04T21:47:50.719Z,18.30
2022-09-04T21:50:42.460Z,18.30
2022-09-04T21:53:31.977Z,18.30
2022-09-04T22:02:25.151Z,18.30
2022-09-04T22:02:41.885Z,18.30
2022-09-04T22:02:51.333Z,18.40
2022-09-04T22:05:22.923Z,18.40
2022-09-04T22:12:09.074Z,18.40
2022-09-04T22:13:41.682Z,18.40
2022-09-04T22:13:57.372Z,18.30
2022-09-04T22:16:49.350Z,18.30
2022-09-04T22:19:42.002Z,18.30
2022-09-04T22:22:30.226Z,18.30
2022-09-04T22:25:29.299Z,18.30
2022-09-04T22:28:20.826Z,18.10
2022-09-04T22:31:11.430Z,18.00
2022-09-04T22:34:15.369Z,17.90
2022-09-04T22:37:07.139Z,17.70
2022-09-04T22:39:55.881Z,17.70
2022-09-04T22:42:37.220Z,17.70
2022-09-04T22:45:29.833Z,17.60
2022-09-04T22:48:18.510Z,17.50
2022-09-04T22:50:53.428Z,17.40
2022-09-04T22:53:44.974Z,17.40
2022-09-04T22:56:24.093Z,17.40
2022-09-04T22:59:26.954Z,17.30
2022-09-04T23:02:19.124Z,17.20
2022-09-04T23:05:13.398Z,17.10
2022-09-04T23:13:49.424Z,17.30
2022-09-04T23:13:53.291Z,17.20
2022-09-04T23:14:17.429Z,17.30
2022-09-04T23:17:13.025Z,17.30
2022-09-04T23:26:32.225Z,17.30
2022-09-04T23:26:35.635Z,17.40
2022-09-04T23:26:58.571Z,17.40
2022-09-04T23:29:22.942Z,17.30
2022-09-04T23:32:16.205Z,17.30
2022-09-04T23:35:15.034Z,17.20
2022-09-04T23:38:00.880Z,17.20
2022-09-04T23:40:38.980Z,17.20
2022-09-04T23:43:37.341Z,17.00
2022-09-04T23:46:23.843Z,17.00
2022-09-04T23:49:07.170Z,17.00
2022-09-04T23:51:45.015Z,17.00
2022-09-04T23:54:43.222Z,17.00
2022-09-04T23:57:26.126Z,16.90
